• Join FlightAware (Why Join?)
  • Login
  • US Flag 
08:08AM EDT


 

Airport Tracker/Info


-or-


 

Live Flight TrackerFlight Track Log ✈ JBU608 ✈ 05-May-2012 ✈ KJFK - KPWM

Flight Track Log - Related Links

Times and Time Zones

All times are in EDT time to prevent confusion due to time zone crossing. See the JBU608 flight status page for this flight to view local times or setup timezone preferences in your user account.

Time Position Orientation Groundspeed Altitude Reporting Facility
EDT Latitude Longitude Course Direction KTS MPH feet Rate Location/Type
10:55PM 40.7506 -73.6660 205° Southwest  Level FlightAware Approximate
10:56PM 40.6667 -73.7167 27° Northeast 195 224 2,500  Level New York TRACON
10:56PM 40.8269 -73.6065 31° Northeast  Level FlightAware Approximate
10:57PM 40.9046 -73.5454 34° Northeast  Level FlightAware Approximate
10:58PM 40.9807 -73.4785 37° Northeast  Level FlightAware Approximate
10:59PM 41.0519 -73.4068 34° Northeast  Level FlightAware Approximate
11:00PM 41.1240 -73.3427 202° Southwest  Level FlightAware Approximate
11:05PM 41.0268 -73.3957 34° Northeast  Level FlightAware Approximate
11:06PM 41.0987 -73.3311 22° Northeast  Level FlightAware Approximate
11:07PM 41.1775 -73.2892 29° Northeast  Level FlightAware Approximate
11:08PM 41.2533 -73.2333 39° Northeast  Level FlightAware Approximate
11:09PM 41.3212 -73.1612 37° Northeast  Level FlightAware Approximate
11:10PM 41.3846 -73.0974 58° Northeast  Level FlightAware Approximate
11:11PM 41.4300 -72.9988 40° Northeast  Level FlightAware Approximate
11:12PM 41.4964 -72.9240 40° Northeast  Level FlightAware Approximate
11:13PM 41.5627 -72.8490 40° Northeast  Level FlightAware Approximate
11:14PM 41.6289 -72.7739 40° Northeast  Level FlightAware Approximate
11:15PM 41.6952 -72.6986 40° Northeast  Level FlightAware Approximate
11:16PM 41.7613 -72.6232 40° Northeast  Level FlightAware Approximate
11:17PM 41.8274 -72.5477 40° Northeast  Level FlightAware Approximate
11:18PM 41.8935 -72.4719 41° Northeast  Level FlightAware Approximate
11:19PM 41.9595 -72.3960 41° Northeast  Level FlightAware Approximate
11:20PM 42.0255 -72.3200 41° Northeast  Level FlightAware Approximate
11:21PM 42.0914 -72.2438 41° Northeast  Level FlightAware Approximate
11:22PM 42.1572 -72.1674 41° Northeast  Level FlightAware Approximate
11:23PM 42.2230 -72.0909 41° Northeast  Level FlightAware Approximate
11:24PM 42.2682 -72.0382 41° Northeast  Level FlightAware Approximate
11:25PM 42.3133 -71.9855 41° Northeast  Level FlightAware Approximate
11:26PM 42.3584 -71.9327 41° Northeast  Level FlightAware Approximate
11:27PM 42.4035 -71.8799 41° Northeast  Level FlightAware Approximate
11:28PM 42.4486 -71.8270 41° Northeast  Level FlightAware Approximate
11:29PM 42.4936 -71.7739 41° Northeast  Level FlightAware Approximate
11:30PM 42.5386 -71.7209 41° Northeast  Level FlightAware Approximate
11:31PM 42.5836 -71.6677 41° Northeast  Level FlightAware Approximate
11:32PM 42.6285 -71.6145 41° Northeast  Level FlightAware Approximate
11:33PM 42.6735 -71.5611 41° Northeast  Level FlightAware Approximate
11:34PM 42.7184 -71.5078 41° Northeast  Level FlightAware Approximate
11:35PM 42.7633 -71.4543 41° Northeast  Level FlightAware Approximate
11:36PM 42.8081 -71.4007 41° Northeast  Level FlightAware Approximate
11:37PM 42.8530 -71.3471 41° Northeast  Level FlightAware Approximate
11:38PM 42.8978 -71.2934 41° Northeast  Level FlightAware Approximate
11:39PM 42.9425 -71.2396 41° Northeast  Level FlightAware Approximate
11:40PM 42.9873 -71.1858 41° Northeast  Level FlightAware Approximate
11:41PM 43.0320 -71.1318 41° Northeast  Level FlightAware Approximate
11:42PM 43.1052 -71.0434 41° Northeast  Level FlightAware Approximate
11:43PM 43.1782 -70.9548 42° Northeast  Level FlightAware Approximate
11:44PM 43.2513 -70.8659 42° Northeast  Level FlightAware Approximate
11:45PM 43.3242 -70.7768 42° Northeast  Level FlightAware Approximate